DRI Storm Peak Lab. Weather observations

Data are for 5 minute period ending at time listed.
 Day   Time    Ave.   Ave.  Ave.  Vector  Max.   Total    Baro.    Solar      Aerosol      Ave.  Ultrafine   Snow  
  of    of     Air    Rel.  Wind   Wind   Wind  Precip.   Pres.  Radiation   Aerosol      Ozone   Aerosol    Depth 
Year   Day     Temp.  Hum.  Speed  Dir.   Gust                               Ave.   Max.            Ave.           
2015   (MST)    F      %     mph   deg.    mph    in.      mb.     w/m2         #/cm3      ppbv    #/cm3      in.  
-------------------------------------------------------------------------------------------------------------------
  30    4:45   22.5    98    9.4   156    12.0   999.00    691.5      0.0    -1439       0   999.0        0     0.0
  30    4:50   22.5    98    9.4   151    10.7   999.00    691.5      0.0    -1438       0   999.0        0     0.0
  30    4:55   22.5    98    8.6   154    11.3   999.00    691.5      0.0    -1439       0   999.0        0     0.0
  30    5:00   22.5    98    8.9   154    11.5   999.00    691.5      0.0    -1438       0   999.0        0     0.0
  30    5:05   22.5    98    7.9   155    10.6   999.00    691.5      0.0    -1439       0   999.0        0     0.0
  30    5:10   22.6    98    7.8   154     9.6   999.00    691.5      0.0    -1438       0   999.0        0     0.0
  30    5:15   22.6    98    7.4   153     9.2   999.00    691.4      0.0    -1438       0   999.0        0     0.0
  30    5:20   22.5    98    7.4   153     9.6   999.00    691.4      0.0    -1438       0   999.0        0     0.0
  30    5:25   22.5    98    8.0   154    11.7   999.00    691.4      0.0    -1438       0   999.0        0     0.0
  30    5:30   22.5    98    8.1   154     9.6   999.00    691.4      0.0    -1438       0   999.0        0     0.0
  30    5:35   22.4    98    7.7   155     9.4   999.00    691.4      0.0    -1438       0   999.0        0     0.0
  30    5:40   22.5    98    6.5   158     8.3   999.00    691.3      0.0    -1438       0   999.0        0     0.0
  30    5:45   22.4    98    7.2   159     9.2   999.00    691.3      0.0    -1438       0   999.0        0     0.0
  30    5:50   22.4    98    6.1   159     7.8   999.00    691.3      0.0    -1438       0   999.0        0     0.0
  30    5:55   22.5    98    5.7   160     7.6   999.00    691.3      0.0    -1438       0   999.0        0     0.0
  30    6:00   22.5    98    4.7   158     6.1   999.00    691.3      0.0    -1438       0   999.0        0     0.0
  30    6:05   22.5    98    4.4   159     5.5   999.00    691.3      0.0    -1438       0   999.0        0     0.0
  30    6:10   22.6    98    3.3   159     4.0   999.00    691.4      0.0    -1438       0   999.0        0     0.0
  30    6:15   22.6    98    3.0   159     3.5   999.00    691.4      0.0    -1438       0   999.0        0     0.0
  30    6:20   22.6    98    2.6   160     3.1   999.00    691.4      0.0    -1438       0   999.0        0     0.0
  30    6:25   22.9    98    2.6   161     3.5   999.00    691.4      0.0    -1438       0   999.0        0     0.0
  30    6:30   23.3    98    3.0   164     4.6   999.00    691.4      0.0    -1438       0   999.0        0     0.0
  30    6:35   23.4    98    3.3   178     6.5   999.00    691.3      0.0    -1438       0   999.0        0     0.0
  30    6:40   23.6    98    4.4   208     8.5   999.00    691.2      0.0    -1438       0   999.0        0     0.0
  30    6:45   23.7    98    4.8   210     7.4   999.00    691.2      0.0    -1438       0   999.0        0     0.0
  30    6:50   23.7    98    5.1   214     9.6   999.00    691.1      0.0    -1438       0   999.0        0     0.0
  30    6:55   23.7    98    3.7   215     7.9   999.00    691.2      0.0    -1438       0   999.0        0     0.0
  30    7:00   23.7    98    3.6   218     8.5   999.00    691.2      0.0    -1438       0   999.0        0     0.0
  30    7:05   23.8    98    4.8   222     7.9   999.00    691.1      0.0    -1438       0   999.0        0     0.0
  30    7:10   23.8    98    3.5   223     6.5   999.00    691.1      0.0    -1438       0   999.0        0     0.0
  30    7:15   23.8    98    5.2   223     7.0   999.00    691.0      0.0    -1438       0   999.0        0     0.0
  30    7:20   23.8    98    3.3   223     4.2   999.00    691.0      0.0    -1438       0   999.0        0     0.0
  30    7:25   23.7    98    3.0   223     3.8   999.00    691.0      0.0    -1438       0   999.0        0     0.0
  30    7:30   23.7    98    3.0   223     4.2   999.00    691.0      0.0    -1438       0   999.0        0     0.0
  30    7:35   23.7    98    3.0   224     4.4   999.00    690.9      0.0    -1438       0   999.0        0     0.0
  30    7:40   23.5    98    2.4   223     3.1   999.00    690.9      0.0    -1438       0   999.0        0     0.0
  30    7:45   23.5    98    2.5   224     4.4   999.00    690.9      0.0    -1438       0   999.0        0     0.0
  30    7:50   23.6    98    2.5   223     4.0   999.00    690.9      0.0    -1438       0   999.0        0     0.0
  30    7:55   23.2    98    1.8   222     1.8   999.00    690.9      0.0    -1438       0   999.0        0     0.0
  30    8:00   23.2    98    1.8   222     1.8   999.00    690.8      0.0    -1438       0   999.0        0     0.0
  30    8:05   23.1    98    1.8   222     1.8   999.00    690.8      0.0    -1438       0   999.0        0     0.0
  30    8:10   23.2    98    1.9   222     2.9   999.00    690.7      0.0    -1438       0   999.0        0     0.0
  30    8:15   23.5    98    1.8   222     1.8   999.00    690.7      0.0    -1438       0   999.0        0     0.0
  30    8:20   23.3    98    1.9   222     2.9   999.00    690.7      0.0    -1438       0   999.0        0     0.0
  30    8:25   23.4    98    1.8   222     2.2   999.00    690.6      0.0    -1437       0   999.0        0     0.0
  30    8:30   23.6    98    1.8   222     1.8   999.00    690.5      0.0    -1437       0   999.0        0     0.0
  30    8:35   23.7    98    1.8   222     1.8   999.00    690.5      0.0    -1437       0   999.0        0     0.0
  30    8:40   23.9    98    1.9   222     2.7   999.00    690.4      0.0    -1437       0   999.0        0     0.0
  30    8:45   24.0    97    2.2   222     3.3   999.00    690.4      0.0    -1437       0   999.0        0     0.0
  30    8:50   24.1    97    1.9   222     2.7   999.00    690.3      0.0    -1437       0   999.0        0     0.0
  30    8:55   24.2    97    1.8   222     2.2   999.00    690.4      0.0    -1437       0   999.0        0     0.0
  30    9:00   24.4    97    2.3   222     3.5   999.00    690.3      0.0    -1437       0   999.0        0     0.0
  30    9:05   24.3    97    2.2   222     3.1   999.00    690.4      0.0    -1437       0   999.0        0     0.0
  30    9:10   24.7    97    2.1   221     3.3   999.00    690.4      0.0    -1437       0   999.0        0     0.0
  30    9:15   24.6    97    2.0   221     3.5   999.00    690.4      0.0    -1437       0   999.0        0     0.0
  30    9:20   24.6    97    3.0   221     4.2   999.00    690.4      0.0    -1437       0   999.0        0     0.0
  30    9:25   24.5    97    1.9   220     2.7   999.00    690.4      0.0    -1437       0   999.0        0     0.0
  30    9:30   24.9    97    1.8   221     1.8   999.00    690.4      0.0    -1436       0   999.0        0     0.0
  30    9:35   25.0    97    1.9   220     2.5   999.00    690.4      0.0    -1436       0   999.0        0     0.0
  30    9:40   25.0    97    1.8   221     2.5   999.00    690.3      0.0    -1436       0   999.0        0     0.0
  30    9:45   25.0    97    1.8   221     2.0   999.00    690.3      0.0    -1436       0   999.0        0     0.0
  30    9:50   24.9    97    1.8   220     2.2   999.00    690.3      0.0    -1436       0   999.0        0     0.0
  30    9:55   24.8    97    1.9   220     2.7   999.00    690.3      0.0    -1436       0   999.0        0     0.0
  30   10:00   24.7    97    2.1   220     3.8   999.00    690.4      0.0    -1436       0   999.0        0     0.0
  30   10:05   24.6    97    1.9   220     2.5   999.00    690.3      0.0    -1435       0   999.0        0     0.0
  30   10:10   24.7    97    2.0   219     2.9   999.00    690.3      0.0    -1435       0   999.0        0     0.0
  30   10:15   24.3    97    2.2   219     3.7   999.00    690.2      0.0    -1435       0   999.0        0     0.0
  30   10:20   24.3    97    2.5   215     3.8   999.00    690.2      0.0    -1435       0   999.0        0     0.0
  30   10:25   24.3    97    3.3   190     5.0   999.00    690.3      0.0    -1435       0   999.0        0     0.0
  30   10:30   24.3    97    2.8   177     6.5   999.00    690.4      0.0    -1435       0   999.0        0     0.0
  30   10:35   24.1    96    3.3   143     6.5   999.00    690.3      0.0    -1435       0   999.0        0     0.0
  30   10:40   24.0    96    3.2   136     6.6   999.00    690.2      0.0    -1435       0   999.0        0     0.0
  30   10:45   23.9    96    3.9   130     8.9   999.00    690.2      0.0    -1434       0   999.0        0     0.0
  30   10:50   24.1    96    3.5   126     7.2   999.00    690.4      0.0    -1435       0   999.0        0     0.0
  30   10:55   23.9    96    3.0   122     6.8   999.00    690.3      0.0    -1434       0   999.0        0     0.0
  30   11:00   23.8    96    4.1   125     6.6   999.00    690.2      0.0    -1434       0   999.0        0     0.0
  30   11:05   24.1    96    2.9   125     4.4   999.00    690.2      0.0    -1434       0   999.0        0     0.0
  30   11:10   24.0    96    2.7   125     4.4   999.00    690.1      0.0    -1434       0   999.0        0     0.0
  30   11:15   24.3    96    3.4   124     4.8   999.00    690.1      0.0    -1434       0   999.0        0     0.0
  30   11:20   24.7    97    2.7   123     3.7   999.00    690.1      0.0    -1433       0   999.0        0     0.0
  30   11:25   24.8    97    2.1   124     3.1   999.00    690.0      0.0    -1433       0   999.0        0     0.0
  30   11:30   24.8    96    2.7   124     3.8   999.00    689.9      0.0    -1433       0   999.0        0     0.0
  30   11:35   24.9    96    3.0   123     4.4   999.00    689.8      0.0    -1432       0   999.0        0     0.0
  30   11:40   24.9    96    2.8   124     4.6   999.00    689.7      0.0    -1432       0   999.0        0     0.0
  30   11:45   25.4    96    3.3   124     5.2   999.00    689.6      0.0    -1432       0   999.0        0     0.0
  30   11:50   25.2    95    3.6   121     5.5   999.00    689.6      0.0    -1431       0   999.0        0     0.0
  30   11:55   25.6    96    2.2   122     3.3   999.00    689.6      0.0    -1431       0   999.0        0     0.0
  30   12:00   26.1    96    2.6   121     4.4   999.00    689.5      0.0    -1431       0   999.0        0     0.0
  30   12:05   26.0    94    3.1   120     4.8   999.00    689.5      0.0    -1430       0   999.0        0     0.0
  30   12:10   25.9    92    2.0   120     3.1   999.00    689.5      0.0    -1430       0   999.0        0     0.0
  30   12:15   26.2    93    2.0   120     3.3   999.00    689.3      0.0    -1430       0   999.0        0     0.0
  30   12:20   26.8    93    2.2   124     3.5   999.00    689.2      0.0    -1429       0   999.0        0     0.0
  30   12:25   27.0    93    2.4   126     3.5   999.00    689.1      0.0    -1429       0   999.0        0     0.0
  30   12:30   27.4    91    2.5   125     4.0   999.00    689.0      0.0    -1428       0   999.0        0     0.0
  30   12:35   27.6    89    2.8   125     4.2   999.00    688.9      0.0    -1428       0   999.0        0     0.0
  30   12:40   27.4    87    3.2   121     5.9   999.00    688.8      0.0    -1428       0   999.0        0     0.0
  30   12:45   27.5    87    3.3   117     5.7   999.00    688.8      0.0    -1428       0   999.0        0     0.0
  30   12:50   27.4    87    3.1   123     6.8   999.00    688.7      0.0    -1427       0   999.0        0     0.0
  30   12:55   27.5    85    3.1   120     5.2   999.00    688.7      0.0    -1427       0   999.0        0     0.0
  30   13:00   27.7    82    3.3   118     5.7   999.00    688.7      0.0    -1427       0   999.0        0     0.0
  30   13:05   27.9    83    2.6   117     5.3   999.00    688.4      0.0    -1427       0   999.0        0     0.0
  30   13:10   28.1    81    3.2   112     5.2   999.00    688.2      0.0    -1426       0   999.0        0     0.0
  30   13:15   28.2    82    3.3   115     6.8   999.00    688.2      0.0    -1426       0   999.0        0     0.0
  30   13:20   28.3    80    3.4   116     5.7   999.00    688.2      0.0    -1426       0   999.0        0     0.0
  30   13:25   28.5    79    3.0   124     7.4   999.00    688.1      0.0    -1425       0   999.0        0     0.0
  30   13:30   28.8    79    2.3   128     4.2   999.00    688.1      0.0    -1425       0   999.0        0     0.0
  30   13:35   28.9    77    4.4   122     7.9   999.00    688.1      0.0    -1425       0   999.0        0     0.0
  30   13:40   28.8    78    2.5   120     4.0   999.00    687.9      0.0    -1425       0   999.0        0     0.0
  30   13:45   28.8    78    3.4   116     5.5   999.00    687.7      0.0    -1424       0   999.0        0     0.0
  30   13:50   28.5    77    3.4   114     7.2   999.00    687.7      0.0    -1424       0   999.0        0     0.0
  30   13:55   28.5    78    4.5   114     7.9   999.00    687.6      0.0    -1424       0   999.0        0     0.0
  30   14:00   28.4    78    5.7    93     8.9   999.00    687.6      0.0    -1423       0   999.0        0     0.0
  30   14:05   28.1    78    6.0    78    11.7   999.00    687.5      0.0    -1423       0   999.0        0     0.0
  30   14:10   27.8    79    7.5    81    13.0   999.00    687.4      0.0    -1423       0   999.0        0     0.0
  30   14:15   27.5    80    6.7    89     9.6   999.00    687.4      0.0    -1423       0   999.0        0     0.0
  30   14:20   27.7    80    7.1    80    12.0   999.00    687.4      0.0    -1423       0   999.0        0     0.0
  30   14:25   27.3    81    6.9    95    10.2   999.00    687.4      0.0    -1423       0   999.0        0     0.0
  30   14:30   27.7    81    4.6   101     8.7   999.00    687.4      0.0    -1423       0   999.0        0     0.0
  30   14:35   27.8    80    5.3    98     9.2   999.00    687.4      0.0    -1422       0   999.0        0     0.0
  30   14:40   27.8    80    7.4    96    12.2   999.00    687.5      0.0    -1422       0   999.0        0     0.0
  30   14:45   27.6    80    7.2    99    10.6   999.00    687.5      0.0    -1423       0   999.0        0     0.0
  30   14:50   27.5    80    7.8    99    13.5   999.00    687.5      0.0    -1422       0   999.0        0     0.0
  30   14:55   27.4    80    9.3   100    12.6   999.00    687.3      0.0    -1422       0   999.0        0     0.0
  30   15:00   27.4    79    8.1    96    12.2   999.00    687.3      0.0    -1422       0   999.0        0     0.0
  30   15:05   27.3    79    7.8   100    12.2   999.00    687.2      0.0    -1422       0   999.0        0     0.0
  30   15:10   27.2    81    8.2   100    13.0   999.00    687.2      0.0    -1422       0   999.0        0     0.0
  30   15:15   27.1    81    9.7    90    13.9   999.00    687.2      0.0    -1422       0   999.0        0     0.0
  30   15:20   26.8    82    9.3    96    12.2   999.00    687.3      0.0    -1422       0   999.0        0     0.0
  30   15:25   26.8    80    8.2    95    13.3   999.00    687.3      0.0    -1422       0   999.0        0     0.0
  30   15:30   26.8    80    8.4   102    14.1   999.00    687.2      0.0    -1422       0   999.0        0     0.0
  30   15:35   27.1    78    6.7   100    14.3   999.00    687.2      0.0    -1421       0   999.0        0     0.0
  30   15:40   27.0    78    7.1    99    10.7   999.00    687.1      0.0    -1421       0   999.0        0     0.0
  30   15:45   27.0    79    7.5   100    12.2   999.00    687.0      0.0    -1421       0   999.0        0     0.0
  30   15:50   26.8    80    6.9    97    13.2   999.00    687.0      0.0    -1421       0   999.0        0     0.0
  30   15:55   26.6    82    8.1    95    12.2   999.00    687.0      0.0    -1421       0   999.0        0     0.0
  30   16:00   26.4    82    7.6    93    11.7   999.00    687.0      0.0    -1421       0   999.0        0     0.0
  30   16:05   26.0    84    8.0    92    11.8   999.00    687.1      0.0    -1421       0   999.0        0     0.0
  30   16:10   25.8    85    8.3    84    15.2   999.00    687.1      0.0    -1421       0   999.0        0     0.0
  30   16:15   25.2    87   10.4    78    15.9   999.00    687.0      0.0    -1421       0   999.0        0     0.0
  30   16:20   24.9    89   10.0    73    16.7   999.00    687.0      0.0    -1421       0   999.0        0     0.0
  30   16:25   24.7    91   10.8    72    17.4   999.00    686.9      0.0    -1421       0   999.0        0     0.0
  30   16:30   24.6    92   10.3    74    14.1   999.00    686.9      0.0    -1421       0   999.0        0     0.0
  30   16:35   24.3    93   10.6    73    15.4   999.00    686.9      0.0    -1421       0   999.0        0     0.0
  30   16:40   24.2    94   11.7    69    17.1   999.00    686.9      0.0    -1421       0   999.0        0     0.0
  30   16:45   24.0    94   12.4    68    15.4   999.00    686.9      0.0    -1421       0   999.0        0     0.0
  30   16:50   24.1    95   10.5    67    16.3   999.00    686.9      0.0    -1421       0   999.0        0     0.0
  30   16:55   23.8    96   10.9    67    15.2   999.00    686.8      0.0    -1421       0   999.0        0     0.0
  30   17:00   23.9    96   12.5    70    15.6   999.00    686.8      0.0    -1421       0   999.0        0     0.0
  30   17:05   23.8    96   10.7    69    15.4   999.00    686.7      0.0    -1421       0   999.0        0     0.0
  30   17:10   23.6    97   12.3    70    18.4   999.00    686.7      0.0    -1421       0   999.0        0     0.0
  30   17:15   23.6    97   13.3    71    19.5   999.00    686.7      0.0    -1421       0   999.0        0     0.0
  30   17:20   23.6    97   13.1    66    18.5   999.00    686.7      0.0    -1421       0   999.0        0     0.0
  30   17:25   23.4    98   12.7    67    18.2   999.00    686.6      0.0    -1421       0   999.0        0     0.0
  30   17:30   23.4    98   13.4    65    18.5   999.00    686.6      0.0    -1421       0   999.0        0     0.0
  30   17:35   23.4    98   12.4    63    18.5   999.00    686.6      0.0    -1421       0   999.0        0     0.0
  30   17:40   23.5    98   13.4    66    17.8   999.00    686.6      0.0    -1421       0   999.0        0     0.0
  30   17:45   23.4    98   14.2    66    18.5   999.00    686.6      0.0    -1421       0   999.0        0     0.0
  30   17:50   23.4    98   13.5    68    19.5   999.00    686.6      0.0    -1421       0   999.0        0     0.0
  30   17:55   23.4    98   13.9    65    19.9   999.00    686.6      0.0    -1422       0   999.0        0     0.0
  30   18:00   23.4    98   12.6    66    19.5   999.00    686.6      0.0    -1422       0   999.0        0     0.0
  30   18:05   23.4    98   13.3    61    18.5   999.00    686.6      0.0    -1422       0   999.0        0     0.0
  30   18:10   23.4    98   13.7    65    18.5   999.00    686.5      0.0    -1422       0   999.0        0     0.0
  30   18:15   23.3    98   13.2    62    19.3   999.00    686.5      0.0    -1422       0   999.0        0     0.0
  30   18:20   23.4    98   13.7    64    18.2   999.00    686.5      0.0    -1422       0   999.0        0     0.0
  30   18:25   23.3    98   12.6    58    17.4   999.00    686.4      0.0    -1422       0   999.0        0     0.0
  30   18:30   23.1    98   12.7    63    19.1   999.00    686.3      0.0    -1422       0   999.0        0     0.0
  30   18:35   23.1    98   12.4    66    19.9   999.00    686.2      0.0    -1422       0   999.0        0     0.0
  30   18:40   23.1    98   12.2    69    19.5   999.00    686.2      0.0    -1422       0   999.0        0     0.0
  30   18:45   23.0    98   13.1    66    19.1   999.00    686.2      0.0    -1422       0   999.0        0     0.0
  30   18:50   22.9    98   12.4    65    18.5   999.00    686.2      0.0    -1422       0   999.0        0     0.0
  30   18:55   22.7    98   14.7    66    18.5   999.00    686.2      0.0    -1422       0   999.0        0     0.0
  30   19:00   22.6    98   16.3    65    20.6   999.00    686.1      0.0    -1422       0   999.0        0     0.0
  30   19:05   22.5    98   12.3    64    17.6   999.00    686.0      0.0    -1422       0   999.0        0     0.0
  30   19:10   22.5    98   15.0    65    21.3   999.00    686.0      0.0    -1422       0   999.0        0     0.0
  30   19:15   22.5    98   16.3    66    21.1   999.00    685.9      0.0    -1422       0   999.0        0     0.0
  30   19:20   22.5    98   16.5    64    21.5   999.00    685.9      0.0    -1423       0   999.0        0     0.0
  30   19:25   22.5    98   15.8    62    22.6   999.00    685.9      0.0    -1423       0   999.0        0     0.0
  30   19:30   22.3    98   17.2    68    24.3   999.00    685.8      0.0    -1422       0   999.0        0     0.0
  30   19:35   22.3    98   17.2    67    23.6   999.00    685.7      0.0    -1423       0   999.0        0     0.0
  30   19:40   22.3    98   17.8    66    23.2   999.00    685.6      0.0    -1423       0   999.0        0     0.0
  30   19:45   22.4    98   17.4    67    23.8   999.00    685.6      0.0    -1422       0   999.0        0     0.0
  30   19:50   22.4    98   17.7    64    23.2   999.00    685.5      0.0    -1422       0   999.0        0     0.0
  30   19:55   22.4    98   20.3    66    26.7   999.00    685.5      0.0    -1422       0   999.0        0     0.0
  30   20:00   22.3    98   20.0    70    25.2   999.00    685.5      0.0    -1422       0   999.0        0     0.0
  30   20:05   22.4    98   19.5    71    23.2   999.00    685.5      0.0    -1422       0   999.0        0     0.0
  30   20:10   22.4    98   18.9    69    26.0   999.00    685.5      0.0    -1422       0   999.0        0     0.0
  30   20:15   22.4    98   17.5    65    22.3   999.00    685.4      0.0    -1422       0   999.0        0     0.0
  30   20:20   22.2    98   16.3    71    21.3   999.00    685.4      0.0    -1422       0   999.0        0     0.0
  30   20:25   22.3    97   17.7    69    22.8   999.00    685.3      0.0    -1423       0   999.0        0     0.0
  30   20:30   22.4    97   18.5    74    22.5   999.00    685.2      0.0    -1422       0   999.0        0     0.0
  30   20:35   22.4    98   16.8    72    22.8   999.00    685.2      0.0    -1422       0   999.0        0     0.0
  30   20:40   22.3    98   18.1    74    25.8   999.00    685.0      0.0    -1423       0   999.0        0     0.0
  30   20:45   22.2    97   16.3    75    23.2   999.00    684.9      0.0    -1422       0   999.0        0     0.0
  30   20:50   22.3    97   17.7    78    24.1   999.00    684.9      0.0    -1423       0   999.0        0     0.0
  30   20:55   22.3    97   17.5    80    26.9   999.00    684.9      0.0    -1423       0   999.0        0     0.0
  30   21:00   22.2    97   16.1    89    23.0   999.00    684.9      0.0    -1423       0   999.0        0     0.0
  30   21:05   22.2    97   18.2    85    23.6   999.00    684.7      0.0    -1423       0   999.0        0     0.0
  30   21:10   22.3    97   17.6    91    24.0   999.00    684.8      0.0    -1423       0   999.0        0     0.0
  30   21:15   22.3    97   18.7    95    23.0   999.00    684.9      0.0    -1423       0   999.0        0     0.0
  30   21:20   22.2    97   20.1    88    25.1   999.00    684.8      0.0    -1423       0   999.0        0     0.0
  30   21:25   22.3    97   18.3    86    24.1   999.00    684.7      0.0    -1423       0   999.0        0     0.0
  30   21:30   22.2    97   18.2    87    22.5   999.00    684.6      0.0    -1423       0   999.0        0     0.0
  30   21:35   22.0    97   18.8    88    23.6   999.00    684.5      0.0    -1423       0   999.0        0     0.0
  30   21:40   22.0    97   20.4    93    25.2   999.00    684.5      0.0    -1423       0   999.0        0     0.0
  30   21:45   22.1    97   20.6    91    26.0   999.00    684.4      0.0    -1423       0   999.0        0     0.0
  30   21:50   22.1    97   19.1    88    25.2   999.00    684.4      0.0    -1423       0   999.0        0     0.0
  30   21:55   22.1    97   18.4    90    22.3   999.00    684.4      0.0    -1424       0   999.0        0     0.0
  30   22:00   22.0    97   17.9    83    22.3   999.00    684.4      0.0    -1424       0   999.0        0     0.0
  30   22:05   21.9    97   19.2    85    24.0   999.00    684.5      0.0    -1424       0   999.0        0     0.0
  30   22:10   22.0    97   17.9    88    24.0   999.00    684.6      0.0    -1425       0   999.0        0     0.0
  30   22:15   22.1    97   18.6    93    24.9   999.00    684.5      0.0    -1425       0   999.0        0     0.0
  30   22:20   22.0    97   16.7    93    20.6   999.00    684.6      0.0    -1425       0   999.0        0     0.0
  30   22:25   21.9    97   16.7    85    22.1   999.00    684.6      0.0    -1425       0   999.0        0     0.0
  30   22:30   22.0    97   14.7    90    21.0   999.00    684.6      0.0    -1425       0   999.0        0     0.0
  30   22:35   22.0    97   16.8    97    21.3   999.00    684.7      0.0    -1426       0   999.0        0     0.0
  30   22:40   21.9    97   16.8    93    22.3   999.00    684.7      0.0    -1426       0   999.0        0     0.0
  30   22:45   22.0    97   14.8    94    20.2   999.00    684.7      0.0    -1426       0   999.0        0     0.0
  30   22:50   22.0    97   13.1    91    18.2   999.00    684.7      0.0    -1426       0   999.0        0     0.0
  30   22:55   21.9    97   13.9    85    20.2   999.00    684.6      0.0    -1426       0   999.0        0     0.0
  30   23:00   22.1    97   13.8    86    18.9   999.00    684.5      0.0    -1426       0   999.0        0     0.0
  30   23:05   22.0    97   11.5    98    17.6   999.00    684.6      0.0    -1426       0   999.0        0     0.0
  30   23:10   22.4    97   11.8    92    18.0   999.00    684.6      0.0    -1426       0   999.0        0     0.0
  30   23:15   22.3    97   12.9    91    16.1   999.00    684.5      0.0    -1426       0   999.0        0     0.0
  30   23:20   22.2    97   10.9    96    16.9   999.00    684.5      0.0    -1427       0   999.0        0     0.0
  30   23:25   22.3    97   10.0   101    16.7   999.00    684.5      0.0    -1427       0   999.0        0     0.0
  30   23:30   22.3    97   10.1    96    15.4   999.00    684.5      0.0    -1427       0   999.0        0     0.0
  30   23:35   22.4    97   10.4    88    14.8   999.00    684.4      0.0    -1427       0   999.0        0     0.0
  30   23:40   22.2    97   12.3    85    17.4   999.00    684.4      0.0    -1427       0   999.0        0     0.0
  30   23:45   22.3    97   10.7    90    15.2   999.00    684.4      0.0    -1427       0   999.0        0     0.0
  30   23:50   22.1    97    9.4    98    15.0   999.00    684.5      0.0    -1427       0   999.0        0     0.0
  30   23:55   22.1    97    7.2   105    12.2   999.00    684.4      0.0    -1427       0   999.0        0     0.0
  31    0:00   22.1    97    8.7   108    13.3   999.00    684.3      0.0    -1427       0   999.0        0     0.0
  31    0:05   22.2    97    7.6   106    12.2   999.00    684.3      0.0    -1427       0   999.0        0     0.0
  31    0:10   22.3    97    4.4   112    10.6   999.00    684.3      0.0    -1427       0   999.0        0     0.0
  31    0:15   22.3    97    3.5   116     6.8   999.00    684.3      0.0    -1427       0   999.0        0     0.0
  31    0:20   22.2    97    4.8   111    10.6   999.00    684.2      0.0    -1427       0   999.0        0     0.0
  31    0:25   22.1    97    5.1   118     9.6   999.00    684.1      0.0    -1427       0   999.0        0     0.0
  31    0:30   22.1    97    4.8   112    10.2   999.00    684.1      0.0    -1427       0   999.0        0     0.0
  31    0:35   21.9    97    4.1   109     9.8   999.00    684.0      0.0    -1426       0   999.0        0     0.0
  31    0:40   21.9    97    4.7   110     8.9   999.00    683.9      0.0    -1426       0   999.0        0     0.0
  31    0:45   21.9    97    6.5   118    11.8   999.00    683.9      0.0    -1426       0   999.0        0     0.0
  31    0:50   21.7    97    5.7   117    13.3   999.00    683.9      0.0    -1426       0   999.0        0     0.0
  31    0:55   21.9    97    6.7   118    10.9   999.00    683.9      0.0    -1426       0   999.0        0     0.0
  31    1:00   21.6    97    6.6   114    13.9   999.00    683.8      0.0    -1426       0   999.0        0     0.0
  31    1:05   21.4    97    5.6   115    11.1   999.00    683.7      0.0    -1426       0   999.0        0     0.0
  31    1:10   21.4    97    6.8   118    12.4   999.00    683.6      0.0    -1426       0   999.0        0     0.0
  31    1:15   21.2    97    9.9   120    16.9   999.00    683.6      0.0    -1426       0   999.0        0     0.0
  31    1:20   21.3    97    8.2   116    15.2   999.00    683.6      0.0    -1426       0   999.0        0     0.0
  31    1:25   21.4    97    8.7   118    17.1   999.00    683.6      0.0    -1426       0   999.0        0     0.0
  31    1:30   21.5    97    6.5   119    11.1   999.00    683.6      0.0    -1426       0   999.0        0     0.0
  31    1:35   21.8    97    5.7   117    12.4   999.00    683.5      0.0    -1426       0   999.0        0     0.0
  31    1:40   21.8    97    7.5   119    14.1   999.00    683.5      0.0    -1426       0   999.0        0     0.0
  31    1:45   21.9    97    7.0   120    11.7   999.00    683.5      0.0    -1426       0   999.0        0     0.0
  31    1:50   21.6    97    4.9   116    11.8   999.00    683.5      0.0    -1426       0   999.0        0     0.0
  31    1:55   21.7    97    5.3   114    10.9   999.00    683.5      0.0    -1426       0   999.0        0     0.0
  31    2:00   21.7    97    6.5   116    14.4   999.00    683.4      0.0    -1426       0   999.0        0     0.0
  31    2:05   21.6    97    5.7   116    10.7   999.00    683.3      0.0    -1426       0   999.0        0     0.0
  31    2:10   21.9    97    7.7   118    11.7   999.00    683.2      0.0    -1425       0   999.0        0     0.0
  31    2:15   21.9    97    8.0   123    13.3   999.00    683.2      0.0    -1426       0   999.0        0     0.0
  31    2:20   22.1    97    8.0   121    12.8   999.00    683.2      0.0    -1425       0   999.0        0     0.0
  31    2:25   22.2    97    9.0   123    13.2   999.00    683.2      0.0    -1426       0   999.0        0     0.0
  31    2:30   22.2    97    7.7   122    11.7   999.00    683.2      0.0    -1425       0   999.0        0     0.0
  31    2:35   22.2    97    7.9   122    12.2   999.00    683.2      0.0    -1425       0   999.0        0     0.0
  31    2:40   22.1    97    8.6   123    12.0   999.00    683.1      0.0    -1425       0   999.0        0     0.0
  31    2:45   22.1    97    8.2   121    10.7   999.00    683.1      0.0    -1425       0   999.0        0     0.0
  31    2:50   22.1    97    7.7   119    10.4   999.00    683.1      0.0    -1425       0   999.0        0     0.0
  31    2:55   22.1    97    8.0   121    12.6   999.00    683.1      0.0    -1425       0   999.0        0     0.0
  31    3:00   22.1    97    7.2   123     9.8   999.00    683.1      0.0    -1425       0   999.0        0     0.0
  31    3:05   22.1    97    8.0   122    10.9   999.00    683.0      0.0    -1425       0   999.0        0     0.0
  31    3:10   22.0    97    6.8   119     9.1   999.00    683.0      0.0    -1425       0   999.0        0     0.0
  31    3:15   22.0    97    6.2   120     8.5   999.00    682.9      0.0    -1425       0   999.0        0     0.0
  31    3:20   22.0    97    6.8   120    10.2   999.00    682.9      0.0    -1425       0   999.0        0     0.0
  31    3:25   22.1    97    7.0   121     9.4   999.00    682.8      0.0    -1425       0   999.0        0     0.0
  31    3:30   22.1    97    6.7   119     9.1   999.00    682.8      0.0    -1424       0   999.0        0     0.0
  31    3:35   22.0    97    7.5   119     9.4   999.00    682.8      0.0    -1424       0   999.0        0     0.0
  31    3:40   22.0    97    7.4   121     9.4   999.00    682.8      0.0    -1424       0   999.0        0     0.0
  31    3:45   21.8    97    7.2   118     9.4   999.00    682.8      0.0    -1424       0   999.0        0     0.0
  31    3:50   21.8    97    6.7   116     8.7   999.00    682.8      0.0    -1424       0   999.0        0     0.0
  31    3:55   21.6    97    6.3   117     7.6   999.00    682.8      0.0    -1424       0   999.0        0     0.0
  31    4:00   21.8    97    6.0   118     7.4   999.00    682.8      0.0    -1424       0   999.0        0     0.0
  31    4:05   21.8    97    5.9   118     6.8   999.00    682.7      0.0    -1424       0   999.0        0     0.0
  31    4:10   21.9    97    3.7   118     5.3   999.00    682.7      0.0    -1424       0   999.0        0     0.0
  31    4:15   22.2    97    2.9   118     3.7   999.00    682.6      0.0    -1424       0   999.0        0     0.0
  31    4:20   22.8    98    2.7   153     4.0   999.00    682.5      0.0    -1423       0   999.0        0     0.0
  31    4:25   23.2    98    2.9   175     3.8   999.00    682.5      0.0    -1423       0   999.0        0     0.0
  31    4:30   23.1    98    3.1   164     3.8   999.00    682.5      0.0    -1423       0   999.0        0     0.0
  31    4:35   23.0    98    3.0   171     3.7   999.00    682.5      0.0    -1423       0   999.0        0     0.0
  31    4:40   23.0    98    2.9   181     3.7   999.00    682.5      0.0    -1423       0   999.0        0     0.0

Return to DRI Storm Peak Lab. graphs page.


Western Regional Climate Center,wrcc@dri.edu